Time;durP1;ratioP1;P1;durP2;ratioP2;P2;SDS_P1;SDS_P2;PMS_P1;PMS_P2;Temp;Humidity;BMP_temperature;BMP_pressure;BME280_temperature;BME280_humidity;BME280_pressure;Samples;Min_cycle;Max_cycle;Signal;HPM_P1;HPM_P2
2024/02/11 00:01:14;;;;;;;12.45;5.85;;;10.20;99.90;;;;;;5008044;28;20022;-79
2024/02/11 00:03:40;;;;;;;13.98;6.95;;;10.20;99.90;;;;;;5006042;28;20030;-80
2024/02/11 00:06:08;;;;;;;10.05;6.03;;;10.10;99.90;;;;;;5006898;28;20061;-79
2024/02/11 00:08:34;;;;;;;11.18;6.28;;;10.10;99.90;;;;;;5007963;28;20049;-80
2024/02/11 00:11:00;;;;;;;14.02;6.95;;;;;;;;;;5007317;28;20030;-80
2024/02/11 00:13:28;;;;;;;13.05;6.85;;;10.10;99.90;;;;;;5005750;28;20036;-79
2024/02/11 00:15:54;;;;;;;12.25;6.20;;;10.10;99.90;;;;;;5005007;28;20030;-79
2024/02/11 00:18:22;;;;;;;13.05;7.18;;;10.10;99.90;;;;;;5006966;28;20466;-79
2024/02/11 00:20:47;;;;;;;10.53;6.50;;;10.10;99.90;;;;;;5007025;28;20018;-79
2024/02/11 00:23:13;;;;;;;10.88;5.90;;;10.00;99.90;;;;;;5007148;28;20034;-80
2024/02/11 00:25:39;;;;;;;12.32;6.78;;;10.00;99.90;;;;;;5004963;28;20494;-79
2024/02/11 00:28:08;;;;;;;12.88;6.15;;;10.00;99.90;;;;;;5004967;28;20083;-79
2024/02/11 00:30:37;;;;;;;11.95;6.93;;;10.00;99.90;;;;;;5001044;28;20090;-77
2024/02/11 00:33:06;;;;;;;10.20;6.40;;;10.00;99.90;;;;;;4995367;28;20102;-77
2024/02/11 00:35:31;;;;;;;10.38;5.70;;;10.00;99.90;;;;;;4994357;28;20026;-77
2024/02/11 00:37:58;;;;;;;11.63;6.40;;;10.00;99.90;;;;;;4995361;28;20482;-77
2024/02/11 00:40:24;;;;;;;12.88;6.80;;;10.00;99.90;;;;;;4995578;28;20014;-77
2024/02/11 00:42:51;;;;;;;11.35;6.25;;;9.90;99.90;;;;;;4994351;28;20398;-78
2024/02/11 00:45:17;;;;;;;10.50;6.22;;;10.00;99.90;;;;;;4995239;28;20018;-78
2024/02/11 00:47:43;;;;;;;13.35;6.32;;;10.00;99.90;;;;;;4994488;28;20474;-77
2024/02/11 00:50:11;;;;;;;11.98;6.47;;;10.00;99.90;;;;;;4994380;28;20151;-77
2024/02/11 00:52:40;;;;;;;12.05;6.97;;;10.00;99.90;;;;;;4995382;28;20081;-78
2024/02/11 00:55:21;;;;;;;13.73;6.57;;;10.00;99.90;;;;;;4993978;28;20402;-77
2024/02/11 00:57:50;;;;;;;12.77;6.07;;;10.00;99.90;;;;;;4995387;28;20022;-77
2024/02/11 01:00:17;;;;;;;;;;;10.00;99.90;;;;;;4994540;28;20098;-77
2024/02/11 01:02:43;;;;;;;13.93;5.97;;;10.00;99.90;;;;;;4995315;28;19912;-77
2024/02/11 01:05:12;;;;;;;11.13;6.57;;;10.00;99.90;;;;;;4994322;28;20037;-77
2024/02/11 01:07:41;;;;;;;11.75;6.05;;;10.00;99.90;;;;;;4995173;28;20088;-77
2024/02/11 01:10:10;;;;;;;;;;;10.10;99.90;;;;;;4995841;28;20054;-78
2024/02/11 01:12:39;;;;;;;10.68;6.38;;;10.00;99.90;;;;;;4995230;28;19941;-77
2024/02/11 01:15:09;;;;;;;11.88;6.85;;;10.00;99.90;;;;;;4993993;28;20034;-77
2024/02/11 01:17:35;;;;;;;14.30;6.15;;;10.00;99.90;;;;;;4995106;28;20018;-77
2024/02/11 01:20:01;;;;;;;10.85;6.05;;;10.00;99.90;;;;;;4992989;28;20045;-77
2024/02/11 01:22:28;;;;;;;13.40;6.60;;;10.00;99.90;;;;;;4994349;28;20453;-76
2024/02/11 01:24:53;;;;;;;11.00;5.50;;;10.00;99.90;;;;;;4993125;28;20113;-76
2024/02/11 01:27:19;;;;;;;13.02;6.75;;;10.00;99.90;;;;;;4994450;28;20065;-76
2024/02/11 01:29:44;;;;;;;12.85;6.57;;;10.00;99.90;;;;;;4993443;28;20030;-77
2024/02/11 01:32:10;;;;;;;12.27;6.57;;;10.00;99.90;;;;;;4993120;28;20470;-76
2024/02/11 01:34:35;;;;;;;12.05;6.72;;;10.00;99.90;;;;;;4993045;28;20141;-76
2024/02/11 01:37:01;;;;;;;11.27;6.63;;;10.00;99.90;;;;;;4993037;28;20508;-76
2024/02/11 01:39:27;;;;;;;12.90;6.55;;;10.00;99.90;;;;;;4993110;28;20030;-76
2024/02/11 01:41:53;;;;;;;13.43;5.55;;;10.00;99.90;;;;;;4994120;28;20049;-76
2024/02/11 01:44:18;;;;;;;13.70;7.00;;;10.00;99.90;;;;;;4994944;28;20030;-77
2024/02/11 01:46:46;;;;;;;11.05;6.53;;;10.00;99.90;;;;;;4993023;28;20022;-77
2024/02/11 01:49:12;;;;;;;12.77;6.75;;;10.10;99.90;;;;;;4994251;28;20026;-76
2024/02/11 01:51:44;;;;;;;11.25;6.32;;;10.00;99.90;;;;;;4994021;28;20033;-76
2024/02/11 01:54:15;;;;;;;10.38;5.57;;;10.00;99.90;;;;;;4993274;28;20093;-77
2024/02/11 01:56:41;;;;;;;9.90;5.50;;;10.00;99.90;;;;;;4992639;28;20041;-77
2024/02/11 01:59:07;;;;;;;10.75;5.93;;;9.90;99.90;;;;;;4994139;28;20109;-77
2024/02/11 02:01:33;;;;;;;12.40;6.00;;;9.90;99.90;;;;;;4994252;28;20483;-77
2024/02/11 02:03:59;;;;;;;10.35;5.28;;;10.70;99.90;;;;;;4993994;28;20061;-76
2024/02/11 02:06:25;;;;;;;10.23;5.78;;;10.00;99.90;;;;;;4993895;28;20030;-76
2024/02/11 02:08:51;;;;;;;11.75;5.93;;;9.90;99.90;;;;;;4994097;28;20589;-76
2024/02/11 02:11:17;;;;;;;10.90;6.03;;;9.90;99.90;;;;;;4994627;28;20029;-77
2024/02/11 02:13:43;;;;;;;10.13;5.70;;;9.90;99.90;;;;;;4993121;28;20034;-76
2024/02/11 02:16:09;;;;;;;12.77;6.57;;;9.90;99.90;;;;;;4994215;28;20023;-76
2024/02/11 02:18:35;;;;;;;13.30;6.18;;;9.90;99.90;;;;;;4996924;28;20029;-76
2024/02/11 02:21:04;;;;;;;11.98;5.95;;;9.90;99.90;;;;;;4996573;28;20092;-77
2024/02/11 02:23:30;;;;;;;9.55;5.68;;;9.90;99.90;;;;;;4996522;28;20033;-77
2024/02/11 02:25:57;;;;;;;11.50;6.78;;;9.90;99.90;;;;;;4996317;28;20026;-77
2024/02/11 02:28:23;;;;;;;9.98;5.53;;;9.90;99.90;;;;;;4997664;28;20107;-77
2024/02/11 02:30:48;;;;;;;9.98;5.78;;;9.90;99.90;;;;;;4996265;28;20113;-77
2024/02/11 02:33:14;;;;;;;11.30;5.97;;;9.90;99.90;;;;;;4995965;28;20117;-77
2024/02/11 02:35:40;;;;;;;11.02;5.78;;;;;;;;;;4996360;28;20032;-76
2024/02/11 02:38:06;;;;;;;11.60;6.32;;;9.90;99.90;;;;;;4997351;28;20033;-76
2024/02/11 02:40:32;;;;;;;9.93;5.38;;;10.90;99.90;;;;;;4996062;28;20022;-77
2024/02/11 02:42:58;;;;;;;9.57;5.90;;;9.90;99.90;;;;;;4997383;28;20386;-76
2024/02/11 02:45:24;;;;;;;16.02;5.70;;;9.80;99.90;;;;;;4995970;28;20405;-77
2024/02/11 02:47:50;;;;;;;10.48;6.10;;;9.90;99.90;;;;;;4995964;28;20125;-76
2024/02/11 02:50:16;;;;;;;11.73;5.93;;;9.90;99.90;;;;;;4997150;28;20118;-76
2024/02/11 02:52:43;;;;;;;12.50;6.38;;;9.80;99.90;;;;;;4997042;28;20058;-77
2024/02/11 02:55:09;;;;;;;11.07;5.60;;;9.80;99.90;;;;;;4995746;28;20394;-76
2024/02/11 02:57:35;;;;;;;14.48;6.70;;;9.80;99.90;;;;;;4996956;28;20027;-77
2024/02/11 03:00:09;;;;;;;12.35;6.10;;;9.80;99.90;;;;;;4995766;28;20030;-77
2024/02/11 03:02:35;;;;;;;12.65;7.03;;;9.80;99.90;;;;;;4995822;28;20026;-76
2024/02/11 03:05:03;;;;;;;13.25;6.65;;;9.80;99.90;;;;;;4995363;28;20030;-77
2024/02/11 03:07:29;;;;;;;10.82;5.97;;;9.80;99.90;;;;;;4997018;28;20034;-78
2024/02/11 03:09:55;;;;;;;13.52;6.68;;;8.40;99.90;;;;;;4996641;28;20034;-76
2024/02/11 03:12:21;;;;;;;10.68;6.55;;;9.80;99.90;;;;;;4996483;28;20038;-77
2024/02/11 03:14:48;;;;;;;11.20;5.30;;;9.80;99.90;;;;;;4996588;28;20023;-76
2024/02/11 03:17:14;;;;;;;10.82;6.00;;;9.80;99.90;;;;;;4996708;28;20445;-76
2024/02/11 03:19:43;;;;;;;13.38;6.55;;;9.80;99.90;;;;;;4995391;28;20049;-77
2024/02/11 03:22:12;;;;;;;12.32;6.28;;;9.80;99.90;;;;;;4996947;28;20026;-77
2024/02/11 03:24:44;;;;;;;13.52;6.57;;;9.80;99.90;;;;;;4996572;28;20113;-77
2024/02/11 03:27:10;;;;;;;10.93;5.55;;;;;;;;;;4996364;28;20060;-76
2024/02/11 03:29:36;;;;;;;13.10;6.57;;;9.80;99.90;;;;;;4993944;28;20038;-77
2024/02/11 03:32:02;;;;;;;12.20;6.15;;;9.80;99.90;;;;;;4996228;28;20026;-76
2024/02/11 03:34:28;;;;;;;11.73;6.60;;;9.80;99.90;;;;;;4995761;28;20027;-77
2024/02/11 03:36:53;;;;;;;12.30;6.07;;;9.80;99.90;;;;;;4996320;28;20046;-76
2024/02/11 03:39:20;;;;;;;10.82;5.72;;;9.80;99.90;;;;;;4996202;28;20018;-76
2024/02/11 03:41:45;;;;;;;12.02;5.88;;;9.80;99.90;;;;;;4996327;28;20030;-77
2024/02/11 03:44:12;;;;;;;10.52;6.32;;;9.80;99.90;;;;;;4996296;28;20026;-77
2024/02/11 03:46:38;;;;;;;11.32;6.32;;;9.80;99.90;;;;;;4995974;28;20030;-77
2024/02/11 03:49:04;;;;;;;11.27;6.45;;;9.80;99.90;;;;;;4996219;28;20034;-77
2024/02/11 03:51:30;;;;;;;11.25;5.63;;;9.80;99.90;;;;;;4995711;28;20030;-76
2024/02/11 03:53:59;;;;;;;9.60;5.22;;;9.80;99.90;;;;;;4995193;28;20027;-77
2024/02/11 03:56:26;;;;;;;10.25;5.75;;;9.80;99.90;;;;;;4996454;28;20027;-77
2024/02/11 03:58:52;;;;;;;10.43;5.72;;;9.80;99.90;;;;;;4994785;28;20121;-77
2024/02/11 04:01:18;;;;;;;13.18;5.90;;;9.80;99.90;;;;;;4994972;28;20076;-77
2024/02/11 04:03:44;;;;;;;11.52;6.13;;;9.80;99.90;;;;;;4996277;28;20050;-77
2024/02/11 04:06:11;;;;;;;10.23;6.13;;;9.80;99.90;;;;;;4995912;28;20034;-76
2024/02/11 04:08:41;;;;;;;11.63;5.15;;;9.80;99.90;;;;;;4995742;28;20078;-76
2024/02/11 04:11:07;;;;;;;11.35;6.13;;;9.80;99.90;;;;;;4994636;28;20474;-77
2024/02/11 04:13:33;;;;;;;10.70;5.95;;;9.80;99.90;;;;;;4994277;28;20031;-77
2024/02/11 04:16:05;;;;;;;9.43;5.43;;;9.80;99.90;;;;;;4994320;28;20081;-77
2024/02/11 04:18:32;;;;;;;10.38;6.30;;;9.80;99.90;;;;;;4994485;28;20434;-77
2024/02/11 04:21:01;;;;;;;10.82;6.55;;;9.80;99.90;;;;;;4994218;28;20084;-76
2024/02/11 04:23:27;;;;;;;13.00;7.35;;;9.80;99.90;;;;;;4995554;28;20402;-77
2024/02/11 04:25:53;;;;;;;9.32;5.45;;;9.80;99.90;;;;;;4995402;28;20498;-77
2024/02/11 04:28:20;;;;;;;12.90;6.35;;;9.80;99.90;;;;;;4995451;28;20022;-77
2024/02/11 04:30:46;;;;;;;9.57;5.45;;;9.90;99.90;;;;;;4994126;28;20033;-76
2024/02/11 04:33:20;;;;;;;12.07;6.05;;;9.80;99.90;;;;;;4995430;28;20474;-77
2024/02/11 04:35:46;;;;;;;11.70;5.97;;;9.80;99.90;;;;;;4994280;28;20022;-76
2024/02/11 04:38:12;;;;;;;10.85;5.55;;;9.80;99.90;;;;;;4994190;28;20029;-77
2024/02/11 04:40:39;;;;;;;8.25;5.20;;;9.80;99.90;;;;;;4994024;28;20390;-76
2024/02/11 04:43:07;;;;;;;11.07;5.93;;;9.90;99.90;;;;;;4994178;28;20026;-76
2024/02/11 04:45:33;;;;;;;12.07;6.10;;;9.80;99.90;;;;;;4994813;28;20141;-77
2024/02/11 04:48:03;;;;;;;13.23;5.97;;;9.80;99.90;;;;;;4993310;28;20053;-77
2024/02/11 04:50:30;;;;;;;10.25;6.50;;;9.80;99.90;;;;;;4993463;28;20033;-76
2024/02/11 04:53:01;;;;;;;13.43;6.45;;;9.90;99.90;;;;;;4995324;28;20200;-76
2024/02/11 04:55:43;;;;;;;12.18;6.53;;;9.90;99.90;;;;;;4993595;28;20036;-76
2024/02/11 04:58:19;;;;;;;11.05;6.45;;;9.90;99.90;;;;;;4993549;28;20034;-76
2024/02/11 05:00:47;;;;;;;11.05;6.75;;;9.90;99.90;;;;;;4994427;28;20026;-77
2024/02/11 05:03:17;;;;;;;14.48;7.07;;;9.90;99.90;;;;;;4994968;28;20056;-79
2024/02/11 05:05:43;;;;;;;12.07;6.45;;;9.90;99.90;;;;;;4995782;28;20397;-80
2024/02/11 05:08:10;;;;;;;10.35;5.90;;;9.90;99.90;;;;;;4996761;28;20098;-79
2024/02/11 05:10:37;;;;;;;14.52;6.45;;;9.90;99.90;;;;;;4995322;28;20069;-79
2024/02/11 05:13:11;;;;;;;10.07;6.40;;;9.90;99.90;;;;;;4996208;28;20033;-79
2024/02/11 05:15:42;;;;;;;11.38;5.78;;;9.90;99.90;;;;;;4994671;28;20023;-79
2024/02/11 05:18:11;;;;;;;10.32;6.70;;;9.90;99.90;;;;;;4994017;28;20018;-79
2024/02/11 05:20:38;;;;;;;13.10;6.25;;;9.90;99.90;;;;;;4994952;28;20078;-79
2024/02/11 05:23:09;;;;;;;12.60;6.00;;;9.90;99.90;;;;;;4995034;28;20041;-80
2024/02/11 05:25:36;;;;;;;12.43;6.25;;;9.90;99.90;;;;;;4996304;28;20402;-79
2024/02/11 05:28:04;;;;;;;12.93;6.40;;;9.90;99.90;;;;;;4995997;28;20506;-79
2024/02/11 05:30:34;;;;;;;13.23;7.40;;;9.90;99.90;;;;;;4994777;28;20029;-80
2024/02/11 05:33:02;;;;;;;12.18;6.55;;;9.90;99.90;;;;;;4995145;28;20478;-80
2024/02/11 05:35:28;;;;;;;13.85;7.15;;;9.90;99.90;;;;;;4996256;28;20118;-79
2024/02/11 05:37:58;;;;;;;13.18;6.60;;;9.80;99.90;;;;;;4995313;28;20032;-79
2024/02/11 05:40:27;;;;;;;13.80;7.45;;;10.40;99.90;;;;;;4996595;28;20098;-80
2024/02/11 05:42:54;;;;;;;12.75;7.00;;;9.90;99.90;;;;;;4995649;28;20466;-79
2024/02/11 05:45:22;;;;;;;13.38;7.55;;;9.90;99.90;;;;;;4997099;28;20109;-80
2024/02/11 05:47:52;;;;;;;14.02;7.40;;;9.90;99.90;;;;;;4995550;28;20023;-79
2024/02/11 05:50:19;;;;;;;12.38;6.60;;;9.90;99.90;;;;;;4996399;28;20022;-80
2024/02/11 05:52:45;;;;;;;13.65;7.07;;;9.90;99.90;;;;;;4998543;28;20033;-79
2024/02/11 05:55:16;;;;;;;15.77;8.18;;;9.90;99.90;;;;;;5000517;28;20081;-79
2024/02/11 05:57:45;;;;;;;13.70;7.28;;;9.90;99.90;;;;;;4998919;28;20503;-79
2024/02/11 06:00:12;;;;;;;15.65;7.53;;;9.90;99.90;;;;;;5000103;28;20033;-80
2024/02/11 06:02:43;;;;;;;12.25;6.95;;;9.90;99.90;;;;;;4998079;28;20022;-79
2024/02/11 06:05:12;;;;;;;16.20;8.93;;;9.90;99.90;;;;;;4998729;28;20033;-79
2024/02/11 06:07:43;;;;;;;15.90;8.93;;;9.90;99.90;;;;;;4998465;28;20018;-79
2024/02/11 06:10:12;;;;;;;14.95;8.80;;;9.90;99.90;;;;;;5000488;28;20069;-80
2024/02/11 06:12:38;;;;;;;;;;;9.90;99.90;;;;;;5000229;28;20026;-79
2024/02/11 06:15:07;;;;;;;16.83;8.98;;;9.90;99.90;;;;;;4998419;28;20292;-80
2024/02/11 06:17:33;;;;;;;;;;;9.90;99.90;;;;;;4999100;28;20035;-79
2024/02/11 06:19:59;;;;;;;16.55;8.68;;;9.90;99.90;;;;;;4999795;28;20262;-79
2024/02/11 06:22:25;;;;;;;18.00;9.27;;;9.90;99.90;;;;;;4998749;28;20018;-79
2024/02/11 06:24:56;;;;;;;17.60;9.65;;;10.00;99.90;;;;;;4999489;28;20153;-79
2024/02/11 06:27:22;;;;;;;9.77;6.10;;;9.90;99.90;;;;;;4998547;28;20192;-79
2024/02/11 06:29:47;;;;;;;9.50;5.18;;;10.00;99.90;;;;;;4999828;28;20498;-80
2024/02/11 06:32:13;;;;;;;7.60;4.03;;;9.90;99.90;;;;;;4999656;28;20030;-79
2024/02/11 06:34:40;;;;;;;4.47;2.75;;;9.80;99.90;;;;;;4999456;28;20482;-79
2024/02/11 06:37:06;;;;;;;3.60;1.35;;;9.70;99.90;;;;;;4997889;28;20033;-79
2024/02/11 06:39:32;;;;;;;3.40;1.17;;;9.60;99.90;;;;;;4999000;28;20023;-81
2024/02/11 06:42:05;;;;;;;3.67;1.67;;;9.50;99.90;;;;;;4998968;28;20029;-81
2024/02/11 06:44:33;;;;;;;5.00;2.17;;;9.50;99.90;;;;;;4999052;28;20026;-81
2024/02/11 06:46:59;;;;;;;3.63;1.70;;;9.40;99.90;;;;;;5000387;28;20033;-81
2024/02/11 06:49:28;;;;;;;4.47;2.05;;;9.40;99.90;;;;;;4999542;28;20026;-82
2024/02/11 06:51:55;;;;;;;;;;;9.30;99.90;;;;;;5001379;28;20109;-80
2024/02/11 06:54:22;;;;;;;8.05;4.18;;;;;;;;;;4997434;28;20387;-79
2024/02/11 06:56:50;;;;;;;9.45;5.30;;;9.10;99.90;;;;;;4998793;28;20398;-80
2024/02/11 06:59:17;;;;;;;13.82;5.85;;;9.00;99.90;;;;;;4997486;28;20037;-79
2024/02/11 07:01:43;;;;;;;7.90;4.85;;;9.00;99.90;;;;;;4998292;28;20026;-79
2024/02/11 07:04:12;;;;;;;13.45;5.00;;;8.90;99.90;;;;;;4998624;28;20023;-81
2024/02/11 07:06:43;;;;;;;10.20;4.40;;;8.90;99.90;;;;;;4999684;28;20022;-81
2024/02/11 07:09:13;;;;;;;9.52;3.78;;;8.90;99.90;;;;;;4998730;28;20031;-81
2024/02/11 07:11:42;;;;;;;12.20;4.28;;;8.80;99.90;;;;;;5000382;28;20363;-81
2024/02/11 07:14:08;;;;;;;12.40;3.83;;;8.80;99.90;;;;;;4998747;28;20057;-81
2024/02/11 07:16:40;;;;;;;8.43;4.07;;;8.60;99.90;;;;;;4999720;28;20073;-79
2024/02/11 07:19:08;;;;;;;8.88;3.72;;;8.60;99.90;;;;;;5001105;28;20030;-81
2024/02/11 07:21:36;;;;;;;6.07;2.88;;;8.60;99.90;;;;;;4998465;28;20100;-81
2024/02/11 07:24:06;;;;;;;7.05;3.20;;;8.60;99.90;;;;;;4998020;28;20399;-79
2024/02/11 07:26:32;;;;;;;6.55;2.97;;;8.50;99.90;;;;;;4997860;28;20046;-79
2024/02/11 07:28:59;;;;;;;8.35;3.67;;;8.60;99.90;;;;;;4996772;28;20080;-78
2024/02/11 07:31:25;;;;;;;10.20;3.03;;;8.50;99.90;;;;;;4996909;28;20048;-81
2024/02/11 07:33:51;;;;;;;6.00;2.33;;;8.50;99.90;;;;;;4998738;28;20019;-80
2024/02/11 07:36:18;;;;;;;7.18;2.47;;;8.40;99.90;;;;;;4997999;28;20393;-81
2024/02/11 07:38:44;;;;;;;7.40;2.38;;;8.30;99.90;;;;;;4999224;28;20474;-81
2024/02/11 07:41:11;;;;;;;7.45;2.25;;;8.40;99.90;;;;;;4998703;28;20410;-82
2024/02/11 07:43:37;;;;;;;5.90;2.53;;;8.30;99.90;;;;;;4997721;28;20023;-81
2024/02/11 07:46:03;;;;;;;9.45;2.55;;;8.40;99.90;;;;;;4998928;28;20049;-81
2024/02/11 07:48:30;;;;;;;6.95;1.75;;;8.40;99.90;;;;;;4998894;28;20022;-81
2024/02/11 07:50:56;;;;;;;5.28;2.30;;;8.40;99.90;;;;;;4997884;28;20045;-79
2024/02/11 07:53:22;;;;;;;14.95;2.90;;;8.30;99.90;;;;;;4997276;28;20528;-81
2024/02/11 07:55:48;;;;;;;8.85;1.85;;;10.80;99.90;;;;;;4999598;28;20019;-82
2024/02/11 07:58:14;;;;;;;8.32;1.63;;;8.30;99.90;;;;;;4997905;28;20039;-80
2024/02/11 08:00:40;;;;;;;8.43;2.72;;;8.30;99.90;;;;;;4997441;28;20393;-80
2024/02/11 08:03:09;;;;;;;8.02;2.30;;;8.30;99.90;;;;;;5001399;28;20030;-84
2024/02/11 08:05:35;;;;;;;6.78;2.40;;;;;;;;;;5000091;28;20097;-84
2024/02/11 08:08:01;;;;;;;14.48;2.70;;;8.20;99.90;;;;;;5000023;28;20042;-83
2024/02/11 08:10:27;;;;;;;15.55;3.45;;;8.20;99.90;;;;;;5002900;28;20030;-84
2024/02/11 08:12:52;;;;;;;10.40;3.10;;;8.20;99.90;;;;;;5001964;28;20022;-81
2024/02/11 08:15:19;;;;;;;8.23;2.42;;;8.20;99.90;;;;;;5000911;28;20490;-80
2024/02/11 08:17:45;;;;;;;11.40;3.78;;;;;;;;;;5001621;28;20018;-80
2024/02/11 08:20:18;;;;;;;14.95;3.08;;;8.20;99.90;;;;;;4999061;28;20037;-82
2024/02/11 08:22:45;;;;;;;10.85;3.10;;;8.20;99.90;;;;;;5000926;28;20018;-84
2024/02/11 08:25:12;;;;;;;15.50;3.28;;;8.20;99.90;;;;;;5000742;28;20034;-84
2024/02/11 08:27:38;;;;;;;20.83;4.32;;;8.30;99.90;;;;;;5000117;28;20437;-79
2024/02/11 08:30:12;;;;;;;10.85;2.90;;;8.30;99.90;;;;;;4999153;28;20031;-78
2024/02/11 08:32:38;;;;;;;13.13;3.05;;;8.30;99.90;;;;;;4999841;28;20092;-80
2024/02/11 08:35:08;;;;;;;12.05;3.58;;;8.30;99.90;;;;;;4998623;28;20053;-78
2024/02/11 08:37:35;;;;;;;12.40;3.13;;;8.30;99.90;;;;;;5000087;28;20030;-80
2024/02/11 08:40:01;;;;;;;13.13;3.92;;;8.30;99.90;;;;;;4998865;28;20104;-80
2024/02/11 08:42:27;;;;;;;10.55;3.78;;;8.40;99.90;;;;;;5000628;28;20076;-81
2024/02/11 08:44:54;;;;;;;18.90;3.97;;;8.40;99.90;;;;;;4998228;28;20022;-81
2024/02/11 08:47:20;;;;;;;14.70;4.18;;;8.40;99.90;;;;;;4999602;28;20033;-81
2024/02/11 08:49:47;;;;;;;18.70;3.47;;;8.40;99.90;;;;;;5000154;28;20023;-80
2024/02/11 08:52:13;;;;;;;13.25;3.35;;;8.40;99.90;;;;;;4999773;28;20094;-81
2024/02/11 08:54:39;;;;;;;11.98;3.85;;;8.50;99.90;;;;;;4998847;28;20057;-78
2024/02/11 08:57:06;;;;;;;9.85;3.40;;;8.50;99.90;;;;;;4998437;28;20034;-81
2024/02/11 08:59:32;;;;;;;16.90;3.97;;;8.50;99.90;;;;;;4999206;28;20058;-81
2024/02/11 09:01:59;;;;;;;22.15;5.45;;;8.40;99.90;;;;;;4999580;28;20032;-81
2024/02/11 09:04:27;;;;;;;12.85;4.70;;;8.50;99.90;;;;;;4997414;28;20033;-79
2024/02/11 09:06:57;;;;;;;22.30;4.40;;;8.60;99.90;;;;;;4996211;28;20022;-79
2024/02/11 09:09:26;;;;;;;14.55;4.32;;;11.10;99.90;;;;;;4998222;28;20037;-81
2024/02/11 09:11:55;;;;;;;14.45;4.97;;;8.60;99.90;;;;;;4996756;28;20022;-79
2024/02/11 09:14:21;;;;;;;12.30;4.30;;;8.60;99.90;;;;;;4997441;28;20023;-78
2024/02/11 09:16:47;;;;;;;18.48;4.65;;;8.70;99.90;;;;;;4996639;28;20024;-79
2024/02/11 09:19:13;;;;;;;17.70;4.05;;;8.70;99.90;;;;;;4997679;28;20398;-80
2024/02/11 09:21:39;;;;;;;17.52;5.00;;;8.60;99.90;;;;;;4995846;28;20023;-79
2024/02/11 09:24:07;;;;;;;18.08;5.18;;;8.70;99.90;;;;;;4996975;28;20052;-80
2024/02/11 09:26:32;;;;;;;21.65;6.07;;;8.70;99.90;;;;;;4996427;28;20029;-75
2024/02/11 09:28:58;;;;;;;16.52;4.65;;;8.70;99.90;;;;;;4993383;28;20479;-75
2024/02/11 09:31:24;;;;;;;15.68;5.03;;;8.80;99.90;;;;;;4993374;28;20206;-76
2024/02/11 09:33:50;;;;;;;18.85;5.43;;;8.90;99.90;;;;;;4994663;28;20030;-75
2024/02/11 09:36:15;;;;;;;16.88;5.05;;;8.90;99.90;;;;;;4994557;28;20030;-77
2024/02/11 09:38:41;;;;;;;15.63;5.82;;;9.00;99.90;;;;;;4993435;28;20018;-76
2024/02/11 09:41:07;;;;;;;14.80;5.32;;;;;;;;;;4993668;28;20149;-75
2024/02/11 09:43:37;;;;;;;18.80;6.32;;;9.00;99.90;;;;;;4994595;28;20394;-75
2024/02/11 09:46:04;;;;;;;18.95;6.68;;;9.10;99.90;;;;;;4994597;28;20478;-76
2024/02/11 09:48:32;;;;;;;16.67;6.25;;;9.10;99.90;;;;;;4994213;28;20026;-76
2024/02/11 09:50:59;;;;;;;18.23;6.32;;;9.10;99.90;;;;;;4994545;28;20033;-76
2024/02/11 09:53:27;;;;;;;21.00;6.10;;;9.20;99.90;;;;;;4993128;28;20482;-76
2024/02/11 09:55:54;;;;;;;20.47;7.10;;;9.20;99.90;;;;;;4993238;28;20042;-76
2024/02/11 09:58:20;;;;;;;32.90;8.90;;;9.20;99.90;;;;;;4994109;28;20440;-76
2024/02/11 10:00:46;;;;;;;26.00;7.40;;;9.30;99.90;;;;;;4994540;28;20076;-75
2024/02/11 10:03:16;;;;;;;22.63;7.15;;;9.30;99.90;;;;;;4994591;28;20101;-75
2024/02/11 10:05:46;;;;;;;25.17;8.18;;;9.50;99.90;;;;;;4994376;28;20113;-76
2024/02/11 10:08:15;;;;;;;21.67;9.07;;;9.60;99.90;;;;;;4993316;28;20030;-75
2024/02/11 10:10:45;;;;;;;24.80;8.52;;;9.80;99.90;;;;;;4993411;28;20030;-75
2024/02/11 10:13:19;;;;;;;28.90;8.70;;;9.80;99.90;;;;;;4993707;28;20034;-75
2024/02/11 10:15:49;;;;;;;20.85;8.02;;;9.80;99.90;;;;;;4993140;28;20022;-75
2024/02/11 10:18:18;;;;;;;20.83;8.27;;;9.90;99.90;;;;;;4992845;28;20015;-76
2024/02/11 10:20:48;;;;;;;22.17;8.68;;;9.90;99.90;;;;;;4993195;28;20019;-76
2024/02/11 10:23:18;;;;;;;24.08;8.88;;;9.90;99.90;;;;;;4994120;28;20453;-76
2024/02/11 10:25:47;;;;;;;22.50;9.10;;;10.00;99.90;;;;;;4994162;28;20030;-75
2024/02/11 10:28:14;;;;;;;25.33;9.27;;;9.90;99.90;;;;;;4993571;28;20449;-76
2024/02/11 10:30:39;;;;;;;22.13;8.32;;;9.90;99.90;;;;;;4994137;28;20057;-76
2024/02/11 10:33:06;;;;;;;20.85;7.72;;;9.90;99.90;;;;;;4992184;28;20443;-75
2024/02/11 10:35:35;;;;;;;25.17;8.57;;;9.80;99.90;;;;;;4992677;28;20386;-75
2024/02/11 10:38:07;;;;;;;25.13;9.65;;;9.80;99.90;;;;;;4995463;28;20094;-75
2024/02/11 10:40:38;;;;;;;31.48;9.68;;;9.80;99.90;;;;;;4997178;28;20027;-76
2024/02/11 10:43:05;;;;;;;23.60;8.27;;;9.70;99.90;;;;;;4996114;28;20401;-76
2024/02/11 10:45:31;;;;;;;25.63;8.32;;;9.70;99.90;;;;;;4995688;28;20494;-76
2024/02/11 10:47:57;;;;;;;21.45;8.38;;;9.70;99.90;;;;;;4997034;28;20101;-75
2024/02/11 10:50:23;;;;;;;27.45;8.48;;;9.70;99.90;;;;;;4997117;28;20027;-76
2024/02/11 10:52:51;;;;;;;22.30;9.65;;;9.80;99.90;;;;;;4997209;28;20109;-75
2024/02/11 10:55:20;;;;;;;20.88;8.48;;;9.80;99.90;;;;;;4995687;28;20441;-76
2024/02/11 10:57:55;;;;;;;;;;;9.80;99.90;;;;;;4997375;28;20037;-75
2024/02/11 11:00:23;;;;;;;26.60;8.63;;;9.80;99.90;;;;;;4996735;28;20266;-75
2024/02/11 11:02:52;;;;;;;26.23;8.38;;;9.80;99.90;;;;;;4996000;28;20029;-76
2024/02/11 11:05:20;;;;;;;25.35;9.40;;;9.80;99.90;;;;;;4997078;28;20054;-75
2024/02/11 11:07:51;;;;;;;27.80;10.00;;;9.90;99.90;;;;;;4996959;28;20080;-76
2024/02/11 11:10:18;;;;;;;21.00;8.15;;;9.90;99.90;;;;;;4997365;28;20029;-76
2024/02/11 11:12:57;;;;;;;16.42;7.60;;;9.90;99.90;;;;;;4995198;28;20033;-75
2024/02/11 11:15:34;;;;;;;22.20;8.88;;;9.90;99.90;;;;;;4996900;28;20029;-76
2024/02/11 11:18:03;;;;;;;37.35;8.52;;;9.90;99.90;;;;;;4996471;28;20386;-76
2024/02/11 11:20:33;;;;;;;22.63;9.07;;;10.00;99.90;;;;;;4997109;28;20022;-76
2024/02/11 11:23:00;;;;;;;22.92;8.75;;;9.90;99.90;;;;;;4997054;28;20114;-75
2024/02/11 11:25:26;;;;;;;24.33;8.68;;;10.00;99.90;;;;;;4996879;28;20101;-76
2024/02/11 11:27:52;;;;;;;27.73;9.70;;;10.00;99.90;;;;;;4996900;28;20033;-76
2024/02/11 11:30:19;;;;;;;27.38;9.07;;;10.10;99.90;;;;;;4996746;28;20105;-76
2024/02/11 11:32:46;;;;;;;28.30;8.85;;;10.00;99.90;;;;;;4994943;28;20037;-75
2024/02/11 11:35:14;;;;;;;27.08;9.38;;;10.00;99.90;;;;;;4995004;28;20018;-76
2024/02/11 11:37:40;;;;;;;34.80;10.27;;;10.10;99.90;;;;;;4995319;28;20033;-76
2024/02/11 11:40:08;;;;;;;25.75;10.40;;;10.20;99.90;;;;;;4996609;28;20101;-76
2024/02/11 11:42:34;;;;;;;27.38;9.38;;;10.20;99.90;;;;;;4995177;28;20026;-75
2024/02/11 11:45:10;;;;;;;28.65;11.05;;;10.20;99.90;;;;;;4996136;28;20032;-76
2024/02/11 11:47:39;;;;;;;24.02;9.38;;;10.10;99.90;;;;;;4996202;28;20113;-76
2024/02/11 11:50:06;;;;;;;27.70;10.57;;;10.10;99.90;;;;;;4995528;28;20018;-75
2024/02/11 11:52:35;;;;;;;30.30;11.00;;;10.10;99.90;;;;;;4996608;28;20026;-76
2024/02/11 11:55:03;;;;;;;36.88;12.15;;;10.20;99.90;;;;;;4996955;28;20037;-75
2024/02/11 11:57:29;;;;;;;33.25;12.00;;;10.10;99.90;;;;;;4994464;28;20030;-75
2024/02/11 11:59:57;;;;;;;30.88;12.73;;;10.10;99.90;;;;;;4995084;28;20041;-76
2024/02/11 12:02:23;;;;;;;35.17;12.80;;;10.10;99.90;;;;;;4994879;28;20038;-76
2024/02/11 12:04:48;;;;;;;31.17;12.20;;;10.00;99.90;;;;;;4996042;28;20390;-75
2024/02/11 12:07:14;;;;;;;31.88;12.45;;;9.90;99.90;;;;;;4994496;28;20029;-75
2024/02/11 12:09:40;;;;;;;34.03;12.25;;;9.90;99.90;;;;;;4995810;28;20528;-75
2024/02/11 12:12:07;;;;;;;30.02;10.98;;;9.90;99.90;;;;;;4994872;28;20057;-76
2024/02/11 12:14:36;;;;;;;28.70;11.00;;;9.80;99.90;;;;;;4995695;28;20061;-76
2024/02/11 12:17:03;;;;;;;;;;;9.90;99.90;;;;;;4995950;28;20022;-75
2024/02/11 12:19:37;;;;;;;26.33;10.85;;;10.10;99.90;;;;;;4995801;28;19952;-76
2024/02/11 12:22:04;;;;;;;30.48;10.82;;;10.30;99.90;;;;;;4994001;28;20525;-76
2024/02/11 12:24:29;;;;;;;27.17;10.98;;;10.50;99.90;;;;;;4996142;28;20418;-75
2024/02/11 12:26:58;;;;;;;30.58;10.30;;;10.60;99.90;;;;;;4995022;28;20065;-76
2024/02/11 12:29:24;;;;;;;29.23;10.60;;;10.70;99.90;;;;;;4993857;28;20022;-75
2024/02/11 12:31:51;;;;;;;29.20;9.90;;;10.70;99.90;;;;;;4995032;28;20022;-76
2024/02/11 12:34:17;;;;;;;25.15;9.95;;;10.70;99.90;;;;;;4995347;28;20018;-76
2024/02/11 12:36:43;;;;;;;34.90;9.73;;;10.80;99.90;;;;;;4994430;28;20022;-76
2024/02/11 12:39:10;;;;;;;35.33;10.68;;;10.70;99.90;;;;;;4995928;28;20026;-76
2024/02/11 12:41:40;;;;;;;32.70;9.50;;;10.70;99.90;;;;;;4995148;28;20022;-76
2024/02/11 12:44:08;;;;;;;26.02;9.57;;;10.60;99.90;;;;;;4994414;28;20019;-75
2024/02/11 12:46:35;;;;;;;36.72;11.50;;;10.40;99.90;;;;;;4995330;28;20371;-76
2024/02/11 12:49:01;;;;;;;24.10;9.88;;;10.40;99.90;;;;;;4995578;28;20022;-76